Tachibana Maru — 7JRC — position and weather

sailwx.info

Track history (hours):
 
Tides and Currents Weather Stations Pressure Air Temp Water Temp Dewpoint Dewpoint Depression Visibility Wind Speed Wind Dir Waves Ship Positions

Tachibana Maru

Last reported at 2018-Apr-25 14:00 UTC. Time now 2018-Apr-25 14:19 UTC.
Position N 35°34' E 139°49'.

Length 118 m; draft 5.2 m.

Type: Passenger vessel. MMSI: 431005338.

Date/timePositionNaut miles runAvg speedWind from/ knotsBaromVisibWave heightAir tempDewpointWater temp
2018-Apr-25 14:00N 35°34' E 139°49'612.2
2018-Apr-25 13:30N 35°39' E 139°46'0 0.0
2018-Apr-25 12:57N 35°39' E 139°46'0 0.0
2018-Apr-25 12:30N 35°39' E 139°46'0 0.1
2018-Apr-25 12:00N 35°39' E 139°46'0 0.1
2018-Apr-25 11:18N 35°39' E 139°46'0 0.0
2018-Apr-25 11:00N 35°39' E 139°46'0 0.0
2018-Apr-25 10:26N 35°39' E 139°46'0 0.1
2018-Apr-25 09:53N 35°39' E 139°46'0 0.1
2018-Apr-25 09:30N 35°39' E 139°46'0 0.0
2018-Apr-25 08:53N 35°39' E 139°46'0 0.0
2018-Apr-25 08:30N 35°39' E 139°46'0 0.0
2018-Apr-25 07:59N 35°39' E 139°46'0 0.0
2018-Apr-25 07:30N 35°39' E 139°46'0 0.0
2018-Apr-25 07:00N 35°39' E 139°46'0 0.0
2018-Apr-25 06:28N 35°39' E 139°46'0 0.0
2018-Apr-25 06:00N 35°39' E 139°46'0 0.0
2018-Apr-25 05:30N 35°39' E 139°46'0 0.0
2018-Apr-25 04:59N 35°39' E 139°46'0 0.1
2018-Apr-25 04:30N 35°39' E 139°46'0 0.0
2018-Apr-25 04:01N 35°39' E 139°46'0 0.0
2018-Apr-25 03:31N 35°39' E 139°46'2 4.4
2018-Apr-25 03:00N 35°37' E 139°46'611.1
2018-Apr-25 02:30N 35°33' E 139°51'713.3
2018-Apr-25 02:00N 35°27' E 139°49'713.6
2018-Apr-25 01:30N 35°21' E 139°45'611.9
2018-Apr-25 01:00N 35°15' E 139°47'714.7
2018-Apr-25 00:30N 35°08' E 139°45'918.3
2018-Apr-24 23:59N 34°59' E 139°42'2217.5
2018-Apr-24 22:44N 34°37' E 139°38'20 5.7
2018-Apr-24 19:09N 34°17' E 139°33'411.5
2018-Apr-24 18:49N 34°21' E 139°35'512.7
2018-Apr-24 18:27N 34°25' E 139°36'713.9
2018-Apr-24 17:57N 34°32' E 139°37'1016.1
2018-Apr-24 17:20N 34°42' E 139°38'718.2
2018-Apr-24 16:58N 34°49' E 139°40'818.1
2018-Apr-24 16:30N 34°57' E 139°42'917.9
2018-Apr-24 16:01N 35°05' E 139°44'816.5
2018-Apr-24 15:30N 35°13' E 139°46'612.4
2018-Apr-24 15:00N 35°19' E 139°43'815.7
2018-Apr-24 14:30N 35°27' E 139°45'815.7
2018-Apr-24 14:00N 35°34' E 139°49'612.3
2018-Apr-24 13:30N 35°39' E 139°46'0 0.0
2018-Apr-24 13:00N 35°39' E 139°46'0 0.0
2018-Apr-24 12:29N 35°39' E 139°46'0 0.0
2018-Apr-24 12:00N 35°39' E 139°46'0 0.0
2018-Apr-24 11:30N 35°39' E 139°46'0 0.1
2018-Apr-24 11:01N 35°39' E 139°46'0 0.5
2018-Apr-24 10:30N 35°39' E 139°46'713.9
2018-Apr-24 10:00N 35°33' E 139°51'815.7
2018-Apr-24 09:30N 35°26' E 139°48'713.6
2018-Apr-24 09:00N 35°20' E 139°44'612.5
2018-Apr-24 08:30N 35°14' E 139°47'918.5
2018-Apr-24 08:00N 35°04' E 139°45'1019.2
2018-Apr-24 07:30N 34°55' E 139°42'40 3.2
2018-Apr-23 18:58N 34°15' E 139°36'816.6
2018-Apr-23 18:27N 34°24' E 139°35'917.4
2018-Apr-23 17:57N 34°32' E 139°35'817.8
2018-Apr-23 17:29N 34°41' E 139°36'917.3
2018-Apr-23 16:59N 34°49' E 139°37'918.5
2018-Apr-23 16:30N 34°58' E 139°39'917.6
2018-Apr-23 16:00N 35°06' E 139°43'816.4
2018-Apr-23 15:30N 35°14' E 139°46'612.4
2018-Apr-23 15:00N 35°19' E 139°43'815.6
2018-Apr-23 14:30N 35°27' E 139°46'815.2
2018-Apr-23 14:00N 35°34' E 139°49'611.9
2018-Apr-23 13:30N 35°39' E 139°46'0 0.0
2018-Apr-23 13:00N 35°39' E 139°46'0 0.0
2018-Apr-23 12:30N 35°39' E 139°46'0 0.0
2018-Apr-23 12:01N 35°39' E 139°46'0 0.0
2018-Apr-23 11:30N 35°39' E 139°46'0 0.0
2018-Apr-23 11:00N 35°39' E 139°46'0 0.1
2018-Apr-23 10:30N 35°39' E 139°46'510.7
2018-Apr-23 10:00N 35°34' E 139°49'714.2
2018-Apr-23 09:30N 35°27' E 139°50'715.0
2018-Apr-23 09:00N 35°21' E 139°45'612.3
2018-Apr-23 08:31N 35°15' E 139°47'816.0
2018-Apr-23 08:01N 35°07' E 139°46'919.0
2018-Apr-23 07:31N 34°58' E 139°42'47 3.8
2018-Apr-22 19:10N 34°11' E 139°37'214.3
2018-Apr-22 19:00N 34°14' E 139°36'714.1
2018-Apr-22 18:30N 34°21' E 139°34'816.0
2018-Apr-22 18:00N 34°29' E 139°33'918.5
2018-Apr-22 17:30N 34°37' E 139°35'1019.2
2018-Apr-22 16:59N 34°47' E 139°38'919.7
2018-Apr-22 16:30N 34°56' E 139°41'918.8
2018-Apr-22 16:00N 35°05' E 139°44'817.0
2018-Apr-22 15:30N 35°14' E 139°46'612.9
2018-Apr-22 15:01N 35°19' E 139°43'815.0
2018-Apr-22 14:30N 35°27' E 139°46'815.5
2018-Apr-22 14:00N 35°34' E 139°50'612.3
2018-Apr-22 13:30N 35°39' E 139°46'0 0.0
2018-Apr-22 12:59N 35°39' E 139°46'0 0.0
2018-Apr-22 12:30N 35°39' E 139°46'0 0.0
2018-Apr-22 12:00N 35°39' E 139°46'0 0.0
2018-Apr-22 11:29N 35°39' E 139°46'0 0.0
2018-Apr-22 10:59N 35°39' E 139°46'1 2.2
2018-Apr-22 10:30N 35°38' E 139°46'816.4
2018-Apr-22 10:00N 35°32' E 139°52'917.6
2018-Apr-22 09:30N 35°24' E 139°46'612.8
2018-Apr-22 09:00N 35°18' E 139°45'613.1
2018-Apr-22 08:31N 35°12' E 139°47'1019.6
2018-Apr-22 08:00N 35°02' E 139°45'1118.9
2018-Apr-22 07:24N 34°51' E 139°42'1519.6
2018-Apr-22 06:39N 34°36' E 139°41'30 2.7
2018-Apr-21 19:33N 34°06' E 139°36'615.6
2018-Apr-21 19:12N 34°11' E 139°36'314.3
2018-Apr-21 18:59N 34°14' E 139°35'714.0
2018-Apr-21 18:30N 34°21' E 139°33'917.0
2018-Apr-21 17:59N 34°30' E 139°32'918.3
2018-Apr-21 17:30N 34°38' E 139°35'918.1
2018-Apr-21 17:00N 34°47' E 139°37'918.9
2018-Apr-21 16:30N 34°56' E 139°40'918.9
2018-Apr-21 16:01N 35°05' E 139°43'917.3
2018-Apr-21 15:30N 35°13' E 139°46'612.6
2018-Apr-21 15:00N 35°19' E 139°43'815.2
2018-Apr-21 14:30N 35°26' E 139°45'816.0
2018-Apr-21 14:00N 35°34' E 139°50'612.5
2018-Apr-21 13:30N 35°39' E 139°46'0 0.0
2018-Apr-21 12:55N 35°39' E 139°46'0 0.1
2018-Apr-21 12:29N 35°39' E 139°46'0 0.1
2018-Apr-21 11:59N 35°39' E 139°46'0 0.0
2018-Apr-21 11:30N 35°39' E 139°46'0 0.0
2018-Apr-21 10:56N 35°39' E 139°46'2 4.6
2018-Apr-21 10:31N 35°37' E 139°46'714.7
2018-Apr-21 10:00N 35°32' E 139°52'917.7
2018-Apr-21 09:30N 35°24' E 139°46'612.5
2018-Apr-21 09:00N 35°18' E 139°45'612.9
2018-Apr-21 08:30N 35°12' E 139°47'1019.6
2018-Apr-21 08:00N 35°02' E 139°45'1118.9
2018-Apr-21 07:27N 34°52' E 139°43'36 2.8
2018-Apr-20 18:41N 34°17' E 139°29'315.0
2018-Apr-20 18:30N 34°20' E 139°30'916.8
2018-Apr-20 17:57N 34°29' E 139°32'918.7
2018-Apr-20 17:30N 34°37' E 139°34'918.4
2018-Apr-20 17:00N 34°46' E 139°37'918.6
2018-Apr-20 16:30N 34°55' E 139°40'919.0
2018-Apr-20 16:00N 35°04' E 139°43'918.2
2018-Apr-20 15:30N 35°13' E 139°46'612.5
2018-Apr-20 15:00N 35°19' E 139°43'715.2
2018-Apr-20 14:30N 35°26' E 139°45'816.6
2018-Apr-20 14:00N 35°34' E 139°50'7 4.1
2018-Apr-20 12:24N 35°39' E 139°46'0 0.0
2018-Apr-20 11:56N 35°39' E 139°46'0 0.0
2018-Apr-20 11:30N 35°39' E 139°46'0 0.0
2018-Apr-20 11:00N 35°39' E 139°46'4 7.8
2018-Apr-20 10:30N 35°36' E 139°47'815.4
2018-Apr-20 10:01N 35°29' E 139°51'816.1
2018-Apr-20 09:30N 35°22' E 139°45'612.1
2018-Apr-20 09:00N 35°16' E 139°46'815.6
2018-Apr-20 08:30N 35°08' E 139°46'1020.0
2018-Apr-20 08:00N 34°59' E 139°42'1019.8
2018-Apr-20 07:29N 34°49' E 139°40'35 2.8
2018-Apr-19 18:57N 34°14' E 139°36'817.1
2018-Apr-19 18:31N 34°21' E 139°32'918.0
2018-Apr-19 17:59N 34°31' E 139°30'1018.2
2018-Apr-19 17:25N 34°41' E 139°33'818.4
2018-Apr-19 17:00N 34°48' E 139°37'919.2
2018-Apr-19 16:30N 34°57' E 139°39'918.7
2018-Apr-19 16:00N 35°06' E 139°44'816.8
2018-Apr-19 15:31N 35°14' E 139°46'612.1
2018-Apr-19 15:00N 35°19' E 139°43'714.5
2018-Apr-19 14:30N 35°26' E 139°45'816.5
2018-Apr-19 14:00N 35°34' E 139°50'612.9
2018-Apr-19 13:30N 35°39' E 139°46'0 0.0
2018-Apr-19 13:00N 35°39' E 139°46'0 0.0
2018-Apr-19 12:30N 35°39' E 139°46'0 0.0
2018-Apr-19 12:00N 35°39' E 139°46'0 0.0
2018-Apr-19 11:28N 35°39' E 139°46'0 0.0
2018-Apr-19 11:00N 35°39' E 139°46'3 5.7
2018-Apr-19 10:30N 35°37' E 139°46'917.2
2018-Apr-19 10:00N 35°29' E 139°52'816.6
2018-Apr-19 09:30N 35°23' E 139°46'611.8
2018-Apr-19 09:00N 35°17' E 139°46'815.2
2018-Apr-19 08:30N 35°09' E 139°47'1020.0
2018-Apr-19 08:00N 34°60' E 139°43'1319.8
2018-Apr-19 07:21N 34°47' E 139°38'1019.6
2018-Apr-19 06:51N 34°38' E 139°35'19 1.6
2018-Apr-18 18:42N 34°21' E 139°25'418.0
2018-Apr-18 18:29N 34°24' E 139°25'1018.3
2018-Apr-18 17:58N 34°34' E 139°28'1018.2
2018-Apr-18 17:26N 34°43' E 139°31'818.2
2018-Apr-18 16:59N 34°51' E 139°34'918.9
2018-Apr-18 16:30N 34°59' E 139°40'918.6
2018-Apr-18 16:01N 35°07' E 139°45'816.4
2018-Apr-18 15:30N 35°15' E 139°46'613.0
2018-Apr-18 15:00N 35°21' E 139°42'917.4
2018-Apr-18 14:30N 35°28' E 139°47'612.7
2018-Apr-18 14:00N 35°35' E 139°48'5 9.5
2018-Apr-18 13:30N 35°39' E 139°46'0 0.0
2018-Apr-18 13:00N 35°39' E 139°46'0 0.0
2018-Apr-18 12:30N 35°39' E 139°46'0 0.0
2018-Apr-18 12:00N 35°39' E 139°46'0 0.0
2018-Apr-18 11:30N 35°39' E 139°46'0 0.0
2018-Apr-18 11:00N 35°39' E 139°46'0 0.0
2018-Apr-18 10:30N 35°39' E 139°46'0 0.0
2018-Apr-18 10:00N 35°39' E 139°46'0 0.0
2018-Apr-18 09:30N 35°39' E 139°46'0 0.0
2018-Apr-18 08:59N 35°39' E 139°46'0 0.0
2018-Apr-18 08:30N 35°39' E 139°46'0 0.0
2018-Apr-18 08:00N 35°39' E 139°46'0 0.0
2018-Apr-18 07:30N 35°39' E 139°46'0 0.0
2018-Apr-18 07:00N 35°39' E 139°46'0 0.7
2018-Apr-18 06:30N 35°39' E 139°46'714.8
2018-Apr-18 06:01N 35°33' E 139°51'816.1
2018-Apr-18 05:30N 35°25' E 139°48'713.2
2018-Apr-18 05:01N 35°19' E 139°44'713.0
2018-Apr-18 04:30N 35°13' E 139°47'917.1
2018-Apr-18 04:00N 35°05' E 139°45'917.2
2018-Apr-18 03:30N 34°57' E 139°41'39 4.5
2018-Apr-17 18:49N 34°19' E 139°27'717.3
2018-Apr-17 18:26N 34°26' E 139°28'817.1
2018-Apr-17 17:58N 34°34' E 139°30'1017.2
2018-Apr-17 17:24N 34°43' E 139°33'718.2
2018-Apr-17 17:00N 34°49' E 139°37'917.5
2018-Apr-17 16:30N 34°58' E 139°40'918.7
2018-Apr-17 16:00N 35°07' E 139°44'816.7
2018-Apr-17 15:30N 35°15' E 139°46'713.1
2018-Apr-17 15:00N 35°20' E 139°42'713.9
2018-Apr-17 14:30N 35°27' E 139°45'815.6
2018-Apr-17 14:00N 35°34' E 139°49'612.5
2018-Apr-17 13:30N 35°39' E 139°46'0 0.0
2018-Apr-17 13:00N 35°39' E 139°46'0 0.1
2018-Apr-17 12:30N 35°39' E 139°46'0 0.1
2018-Apr-17 11:58N 35°39' E 139°46'0 0.1
2018-Apr-17 11:30N 35°39' E 139°46'0 0.0
2018-Apr-17 10:49N 35°39' E 139°46'310.3
2018-Apr-17 10:30N 35°36' E 139°47'816.3
2018-Apr-17 10:00N 35°29' E 139°51'816.0
2018-Apr-17 09:30N 35°23' E 139°45'611.7
2018-Apr-17 09:00N 35°17' E 139°46'714.6
2018-Apr-17 08:30N 35°09' E 139°46'1018.9
2018-Apr-17 08:00N 35°00' E 139°43'2319.2
2018-Apr-17 06:48N 34°38' E 139°35'20 1.7
2018-Apr-16 18:35N 34°19' E 139°27'118.4
2018-Apr-16 18:30N 34°20' E 139°28'1018.3
2018-Apr-16 17:59N 34°29' E 139°32'918.2
2018-Apr-16 17:30N 34°37' E 139°35'1018.0
2018-Apr-16 16:56N 34°47' E 139°38'818.7
2018-Apr-16 16:30N 34°55' E 139°40'1019.2
2018-Apr-16 16:00N 35°04' E 139°43'918.2
2018-Apr-16 15:31N 35°13' E 139°46'612.5
2018-Apr-16 15:00N 35°19' E 139°43'714.8
2018-Apr-16 14:30N 35°26' E 139°45'816.8
2018-Apr-16 14:00N 35°34' E 139°50'712.9
2018-Apr-16 13:30N 35°39' E 139°46'0 0.0
2018-Apr-16 13:00N 35°39' E 139°46'0 0.0
2018-Apr-16 12:30N 35°39' E 139°46'0 0.0
2018-Apr-16 12:00N 35°39' E 139°46'0 0.0
2018-Apr-16 11:30N 35°39' E 139°46'0 0.0
2018-Apr-16 10:59N 35°39' E 139°46'1 2.5
2018-Apr-16 10:31N 35°38' E 139°46'816.7
2018-Apr-16 10:01N 35°31' E 139°52'816.9
2018-Apr-16 09:30N 35°24' E 139°46'612.7
2018-Apr-16 09:01N 35°18' E 139°45'713.4
2018-Apr-16 08:30N 35°11' E 139°47'1019.5
2018-Apr-16 08:00N 35°02' E 139°44'2519.4
2018-Apr-16 06:43N 34°38' E 139°36'25 2.2
2018-Apr-15 19:02N 34°13' E 139°35'218.1
2018-Apr-15 18:55N 34°15' E 139°35'1017.3
2018-Apr-15 18:21N 34°25' E 139°34'616.7
2018-Apr-15 17:58N 34°31' E 139°34'1016.8
2018-Apr-15 17:23N 34°41' E 139°35'716.9
2018-Apr-15 16:59N 34°47' E 139°37'817.4
2018-Apr-15 16:30N 34°55' E 139°39'917.8
2018-Apr-15 16:00N 35°04' E 139°43'918.6
2018-Apr-15 15:30N 35°13' E 139°46'612.6
2018-Apr-15 15:00N 35°19' E 139°44'714.7
2018-Apr-15 14:30N 35°26' E 139°45'816.9
2018-Apr-15 14:00N 35°33' E 139°50'  
Track history (hours):
 
Tides and Currents Weather Stations Pressure Air Temp Water Temp Dewpoint Dewpoint Depression Visibility Wind Speed Wind Dir Waves Ship Positions

Tachibana Maru

Last reported at 2018-Apr-25 14:00 UTC. Time now 2018-Apr-25 14:19 UTC.
Position N 35°34' E 139°49'.

Length 118 m; draft 5.2 m.

Type: Passenger vessel. MMSI: 431005338.

Date/timePositionNaut miles runAvg speedWind from/ knotsBaromVisibWave heightAir tempDewpointWater temp
2018-Apr-25 14:00N 35°34' E 139°49'612.2
2018-Apr-25 13:30N 35°39' E 139°46'0 0.0
2018-Apr-25 12:57N 35°39' E 139°46'0 0.0
2018-Apr-25 12:30N 35°39' E 139°46'0 0.1
2018-Apr-25 12:00N 35°39' E 139°46'0 0.1
2018-Apr-25 11:18N 35°39' E 139°46'0 0.0
2018-Apr-25 11:00N 35°39' E 139°46'0 0.0
2018-Apr-25 10:26N 35°39' E 139°46'0 0.1
2018-Apr-25 09:53N 35°39' E 139°46'0 0.1
2018-Apr-25 09:30N 35°39' E 139°46'0 0.0
2018-Apr-25 08:53N 35°39' E 139°46'0 0.0
2018-Apr-25 08:30N 35°39' E 139°46'0 0.0
2018-Apr-25 07:59N 35°39' E 139°46'0 0.0
2018-Apr-25 07:30N 35°39' E 139°46'0 0.0
2018-Apr-25 07:00N 35°39' E 139°46'0 0.0
2018-Apr-25 06:28N 35°39' E 139°46'0 0.0
2018-Apr-25 06:00N 35°39' E 139°46'0 0.0
2018-Apr-25 05:30N 35°39' E 139°46'0 0.0
2018-Apr-25 04:59N 35°39' E 139°46'0 0.1
2018-Apr-25 04:30N 35°39' E 139°46'0 0.0
2018-Apr-25 04:01N 35°39' E 139°46'0 0.0
2018-Apr-25 03:31N 35°39' E 139°46'2 4.4
2018-Apr-25 03:00N 35°37' E 139°46'611.1
2018-Apr-25 02:30N 35°33' E 139°51'713.3
2018-Apr-25 02:00N 35°27' E 139°49'713.6
2018-Apr-25 01:30N 35°21' E 139°45'611.9
2018-Apr-25 01:00N 35°15' E 139°47'714.7
2018-Apr-25 00:30N 35°08' E 139°45'918.3
2018-Apr-24 23:59N 34°59' E 139°42'2217.5
2018-Apr-24 22:44N 34°37' E 139°38'20 5.7
2018-Apr-24 19:09N 34°17' E 139°33'411.5
2018-Apr-24 18:49N 34°21' E 139°35'512.7
2018-Apr-24 18:27N 34°25' E 139°36'713.9
2018-Apr-24 17:57N 34°32' E 139°37'1016.1
2018-Apr-24 17:20N 34°42' E 139°38'718.2
2018-Apr-24 16:58N 34°49' E 139°40'818.1
2018-Apr-24 16:30N 34°57' E 139°42'917.9
2018-Apr-24 16:01N 35°05' E 139°44'816.5
2018-Apr-24 15:30N 35°13' E 139°46'612.4
2018-Apr-24 15:00N 35°19' E 139°43'815.7
2018-Apr-24 14:30N 35°27' E 139°45'815.7
2018-Apr-24 14:00N 35°34' E 139°49'612.3
2018-Apr-24 13:30N 35°39' E 139°46'0 0.0
2018-Apr-24 13:00N 35°39' E 139°46'0 0.0
2018-Apr-24 12:29N 35°39' E 139°46'0 0.0
2018-Apr-24 12:00N 35°39' E 139°46'0 0.0
2018-Apr-24 11:30N 35°39' E 139°46'0 0.1
2018-Apr-24 11:01N 35°39' E 139°46'0 0.5
2018-Apr-24 10:30N 35°39' E 139°46'713.9
2018-Apr-24 10:00N 35°33' E 139°51'815.7
2018-Apr-24 09:30N 35°26' E 139°48'713.6
2018-Apr-24 09:00N 35°20' E 139°44'612.5
2018-Apr-24 08:30N 35°14' E 139°47'918.5
2018-Apr-24 08:00N 35°04' E 139°45'1019.2
2018-Apr-24 07:30N 34°55' E 139°42'40 3.2
2018-Apr-23 18:58N 34°15' E 139°36'816.6
2018-Apr-23 18:27N 34°24' E 139°35'917.4
2018-Apr-23 17:57N 34°32' E 139°35'817.8
2018-Apr-23 17:29N 34°41' E 139°36'917.3
2018-Apr-23 16:59N 34°49' E 139°37'918.5
2018-Apr-23 16:30N 34°58' E 139°39'917.6
2018-Apr-23 16:00N 35°06' E 139°43'816.4
2018-Apr-23 15:30N 35°14' E 139°46'612.4
2018-Apr-23 15:00N 35°19' E 139°43'815.6
2018-Apr-23 14:30N 35°27' E 139°46'815.2
2018-Apr-23 14:00N 35°34' E 139°49'611.9
2018-Apr-23 13:30N 35°39' E 139°46'0 0.0
2018-Apr-23 13:00N 35°39' E 139°46'0 0.0
2018-Apr-23 12:30N 35°39' E 139°46'0 0.0
2018-Apr-23 12:01N 35°39' E 139°46'0 0.0
2018-Apr-23 11:30N 35°39' E 139°46'0 0.0
2018-Apr-23 11:00N 35°39' E 139°46'0 0.1
2018-Apr-23 10:30N 35°39' E 139°46'510.7
2018-Apr-23 10:00N 35°34' E 139°49'714.2
2018-Apr-23 09:30N 35°27' E 139°50'715.0
2018-Apr-23 09:00N 35°21' E 139°45'612.3
2018-Apr-23 08:31N 35°15' E 139°47'816.0
2018-Apr-23 08:01N 35°07' E 139°46'919.0
2018-Apr-23 07:31N 34°58' E 139°42'47 3.8
2018-Apr-22 19:10N 34°11' E 139°37'214.3
2018-Apr-22 19:00N 34°14' E 139°36'714.1
2018-Apr-22 18:30N 34°21' E 139°34'816.0
2018-Apr-22 18:00N 34°29' E 139°33'918.5
2018-Apr-22 17:30N 34°37' E 139°35'1019.2
2018-Apr-22 16:59N 34°47' E 139°38'919.7
2018-Apr-22 16:30N 34°56' E 139°41'918.8
2018-Apr-22 16:00N 35°05' E 139°44'817.0
2018-Apr-22 15:30N 35°14' E 139°46'612.9
2018-Apr-22 15:01N 35°19' E 139°43'815.0
2018-Apr-22 14:30N 35°27' E 139°46'815.5
2018-Apr-22 14:00N 35°34' E 139°50'612.3
2018-Apr-22 13:30N 35°39' E 139°46'0 0.0
2018-Apr-22 12:59N 35°39' E 139°46'0 0.0
2018-Apr-22 12:30N 35°39' E 139°46'0 0.0
2018-Apr-22 12:00N 35°39' E 139°46'0 0.0
2018-Apr-22 11:29N 35°39' E 139°46'0 0.0
2018-Apr-22 10:59N 35°39' E 139°46'1 2.2
2018-Apr-22 10:30N 35°38' E 139°46'816.4
2018-Apr-22 10:00N 35°32' E 139°52'917.6
2018-Apr-22 09:30N 35°24' E 139°46'612.8
2018-Apr-22 09:00N 35°18' E 139°45'613.1
2018-Apr-22 08:31N 35°12' E 139°47'1019.6
2018-Apr-22 08:00N 35°02' E 139°45'1118.9
2018-Apr-22 07:24N 34°51' E 139°42'1519.6
2018-Apr-22 06:39N 34°36' E 139°41'30 2.7
2018-Apr-21 19:33N 34°06' E 139°36'615.6
2018-Apr-21 19:12N 34°11' E 139°36'314.3
2018-Apr-21 18:59N 34°14' E 139°35'714.0
2018-Apr-21 18:30N 34°21' E 139°33'917.0
2018-Apr-21 17:59N 34°30' E 139°32'918.3
2018-Apr-21 17:30N 34°38' E 139°35'918.1
2018-Apr-21 17:00N 34°47' E 139°37'918.9
2018-Apr-21 16:30N 34°56' E 139°40'918.9
2018-Apr-21 16:01N 35°05' E 139°43'917.3
2018-Apr-21 15:30N 35°13' E 139°46'612.6
2018-Apr-21 15:00N 35°19' E 139°43'815.2
2018-Apr-21 14:30N 35°26' E 139°45'816.0
2018-Apr-21 14:00N 35°34' E 139°50'612.5
2018-Apr-21 13:30N 35°39' E 139°46'0 0.0
2018-Apr-21 12:55N 35°39' E 139°46'0 0.1
2018-Apr-21 12:29N 35°39' E 139°46'0 0.1
2018-Apr-21 11:59N 35°39' E 139°46'0 0.0
2018-Apr-21 11:30N 35°39' E 139°46'0 0.0
2018-Apr-21 10:56N 35°39' E 139°46'2 4.6
2018-Apr-21 10:31N 35°37' E 139°46'714.7
2018-Apr-21 10:00N 35°32' E 139°52'917.7
2018-Apr-21 09:30N 35°24' E 139°46'612.5
2018-Apr-21 09:00N 35°18' E 139°45'612.9
2018-Apr-21 08:30N 35°12' E 139°47'1019.6
2018-Apr-21 08:00N 35°02' E 139°45'1118.9
2018-Apr-21 07:27N 34°52' E 139°43'36 2.8
2018-Apr-20 18:41N 34°17' E 139°29'315.0
2018-Apr-20 18:30N 34°20' E 139°30'916.8
2018-Apr-20 17:57N 34°29' E 139°32'918.7
2018-Apr-20 17:30N 34°37' E 139°34'918.4
2018-Apr-20 17:00N 34°46' E 139°37'918.6
2018-Apr-20 16:30N 34°55' E 139°40'919.0
2018-Apr-20 16:00N 35°04' E 139°43'918.2
2018-Apr-20 15:30N 35°13' E 139°46'612.5
2018-Apr-20 15:00N 35°19' E 139°43'715.2
2018-Apr-20 14:30N 35°26' E 139°45'816.6
2018-Apr-20 14:00N 35°34' E 139°50'7 4.1
2018-Apr-20 12:24N 35°39' E 139°46'0 0.0
2018-Apr-20 11:56N 35°39' E 139°46'0 0.0
2018-Apr-20 11:30N 35°39' E 139°46'0 0.0
2018-Apr-20 11:00N 35°39' E 139°46'4 7.8
2018-Apr-20 10:30N 35°36' E 139°47'815.4
2018-Apr-20 10:01N 35°29' E 139°51'816.1
2018-Apr-20 09:30N 35°22' E 139°45'612.1
2018-Apr-20 09:00N 35°16' E 139°46'815.6
2018-Apr-20 08:30N 35°08' E 139°46'1020.0
2018-Apr-20 08:00N 34°59' E 139°42'1019.8
2018-Apr-20 07:29N 34°49' E 139°40'35 2.8
2018-Apr-19 18:57N 34°14' E 139°36'817.1
2018-Apr-19 18:31N 34°21' E 139°32'918.0
2018-Apr-19 17:59N 34°31' E 139°30'1018.2
2018-Apr-19 17:25N 34°41' E 139°33'818.4
2018-Apr-19 17:00N 34°48' E 139°37'919.2
2018-Apr-19 16:30N 34°57' E 139°39'918.7
2018-Apr-19 16:00N 35°06' E 139°44'816.8
2018-Apr-19 15:31N 35°14' E 139°46'612.1
2018-Apr-19 15:00N 35°19' E 139°43'714.5
2018-Apr-19 14:30N 35°26' E 139°45'816.5
2018-Apr-19 14:00N 35°34' E 139°50'612.9
2018-Apr-19 13:30N 35°39' E 139°46'0 0.0
2018-Apr-19 13:00N 35°39' E 139°46'0 0.0
2018-Apr-19 12:30N 35°39' E 139°46'0 0.0
2018-Apr-19 12:00N 35°39' E 139°46'0 0.0
2018-Apr-19 11:28N 35°39' E 139°46'0 0.0
2018-Apr-19 11:00N 35°39' E 139°46'3 5.7
2018-Apr-19 10:30N 35°37' E 139°46'917.2
2018-Apr-19 10:00N 35°29' E 139°52'816.6
2018-Apr-19 09:30N 35°23' E 139°46'611.8
2018-Apr-19 09:00N 35°17' E 139°46'815.2
2018-Apr-19 08:30N 35°09' E 139°47'1020.0
2018-Apr-19 08:00N 34°60' E 139°43'1319.8
2018-Apr-19 07:21N 34°47' E 139°38'1019.6
2018-Apr-19 06:51N 34°38' E 139°35'19 1.6
2018-Apr-18 18:42N 34°21' E 139°25'418.0
2018-Apr-18 18:29N 34°24' E 139°25'1018.3
2018-Apr-18 17:58N 34°34' E 139°28'1018.2
2018-Apr-18 17:26N 34°43' E 139°31'818.2
2018-Apr-18 16:59N 34°51' E 139°34'918.9
2018-Apr-18 16:30N 34°59' E 139°40'918.6
2018-Apr-18 16:01N 35°07' E 139°45'816.4
2018-Apr-18 15:30N 35°15' E 139°46'613.0
2018-Apr-18 15:00N 35°21' E 139°42'917.4
2018-Apr-18 14:30N 35°28' E 139°47'612.7
2018-Apr-18 14:00N 35°35' E 139°48'5 9.5
2018-Apr-18 13:30N 35°39' E 139°46'0 0.0
2018-Apr-18 13:00N 35°39' E 139°46'0 0.0
2018-Apr-18 12:30N 35°39' E 139°46'0 0.0
2018-Apr-18 12:00N 35°39' E 139°46'0 0.0
2018-Apr-18 11:30N 35°39' E 139°46'0 0.0
2018-Apr-18 11:00N 35°39' E 139°46'0 0.0
2018-Apr-18 10:30N 35°39' E 139°46'0 0.0
2018-Apr-18 10:00N 35°39' E 139°46'0 0.0
2018-Apr-18 09:30N 35°39' E 139°46'0 0.0
2018-Apr-18 08:59N 35°39' E 139°46'0 0.0
2018-Apr-18 08:30N 35°39' E 139°46'0 0.0
2018-Apr-18 08:00N 35°39' E 139°46'0 0.0
2018-Apr-18 07:30N 35°39' E 139°46'0 0.0
2018-Apr-18 07:00N 35°39' E 139°46'0 0.7
2018-Apr-18 06:30N 35°39' E 139°46'714.8
2018-Apr-18 06:01N 35°33' E 139°51'816.1
2018-Apr-18 05:30N 35°25' E 139°48'713.2
2018-Apr-18 05:01N 35°19' E 139°44'713.0
2018-Apr-18 04:30N 35°13' E 139°47'917.1
2018-Apr-18 04:00N 35°05' E 139°45'917.2
2018-Apr-18 03:30N 34°57' E 139°41'39 4.5
2018-Apr-17 18:49N 34°19' E 139°27'717.3
2018-Apr-17 18:26N 34°26' E 139°28'817.1
2018-Apr-17 17:58N 34°34' E 139°30'1017.2
2018-Apr-17 17:24N 34°43' E 139°33'718.2
2018-Apr-17 17:00N 34°49' E 139°37'917.5
2018-Apr-17 16:30N 34°58' E 139°40'918.7
2018-Apr-17 16:00N 35°07' E 139°44'816.7
2018-Apr-17 15:30N 35°15' E 139°46'713.1
2018-Apr-17 15:00N 35°20' E 139°42'713.9
2018-Apr-17 14:30N 35°27' E 139°45'815.6
2018-Apr-17 14:00N 35°34' E 139°49'612.5
2018-Apr-17 13:30N 35°39' E 139°46'0 0.0
2018-Apr-17 13:00N 35°39' E 139°46'0 0.1
2018-Apr-17 12:30N 35°39' E 139°46'0 0.1
2018-Apr-17 11:58N 35°39' E 139°46'0 0.1
2018-Apr-17 11:30N 35°39' E 139°46'0 0.0
2018-Apr-17 10:49N 35°39' E 139°46'310.3
2018-Apr-17 10:30N 35°36' E 139°47'816.3
2018-Apr-17 10:00N 35°29' E 139°51'816.0
2018-Apr-17 09:30N 35°23' E 139°45'611.7
2018-Apr-17 09:00N 35°17' E 139°46'714.6
2018-Apr-17 08:30N 35°09' E 139°46'1018.9
2018-Apr-17 08:00N 35°00' E 139°43'2319.2
2018-Apr-17 06:48N 34°38' E 139°35'20 1.7
2018-Apr-16 18:35N 34°19' E 139°27'118.4
2018-Apr-16 18:30N 34°20' E 139°28'1018.3
2018-Apr-16 17:59N 34°29' E 139°32'918.2
2018-Apr-16 17:30N 34°37' E 139°35'1018.0
2018-Apr-16 16:56N 34°47' E 139°38'818.7
2018-Apr-16 16:30N 34°55' E 139°40'1019.2
2018-Apr-16 16:00N 35°04' E 139°43'918.2
2018-Apr-16 15:31N 35°13' E 139°46'612.5
2018-Apr-16 15:00N 35°19' E 139°43'714.8
2018-Apr-16 14:30N 35°26' E 139°45'816.8
2018-Apr-16 14:00N 35°34' E 139°50'712.9
2018-Apr-16 13:30N 35°39' E 139°46'0 0.0
2018-Apr-16 13:00N 35°39' E 139°46'0 0.0
2018-Apr-16 12:30N 35°39' E 139°46'0 0.0
2018-Apr-16 12:00N 35°39' E 139°46'0 0.0
2018-Apr-16 11:30N 35°39' E 139°46'0 0.0
2018-Apr-16 10:59N 35°39' E 139°46'1 2.5
2018-Apr-16 10:31N 35°38' E 139°46'816.7
2018-Apr-16 10:01N 35°31' E 139°52'816.9
2018-Apr-16 09:30N 35°24' E 139°46'612.7
2018-Apr-16 09:01N 35°18' E 139°45'713.4
2018-Apr-16 08:30N 35°11' E 139°47'1019.5
2018-Apr-16 08:00N 35°02' E 139°44'2519.4
2018-Apr-16 06:43N 34°38' E 139°36'25 2.2
2018-Apr-15 19:02N 34°13' E 139°35'218.1
2018-Apr-15 18:55N 34°15' E 139°35'1017.3
2018-Apr-15 18:21N 34°25' E 139°34'616.7
2018-Apr-15 17:58N 34°31' E 139°34'1016.8
2018-Apr-15 17:23N 34°41' E 139°35'716.9
2018-Apr-15 16:59N 34°47' E 139°37'817.4
2018-Apr-15 16:30N 34°55' E 139°39'917.8
2018-Apr-15 16:00N 35°04' E 139°43'918.6
2018-Apr-15 15:30N 35°13' E 139°46'612.6
2018-Apr-15 15:00N 35°19' E 139°44'714.7
2018-Apr-15 14:30N 35°26' E 139°45'816.9
2018-Apr-15 14:00N 35°33' E 139°50'  

Dump ship's entire track history